createdAt,value
2017-04-04T00:00:07.189Z,90.61
2017-04-04T00:01:16.080Z,90.71
2017-04-04T00:02:25.123Z,90.9
2017-04-04T00:03:34.010Z,91.56
2017-04-04T00:04:43.221Z,91.85
2017-04-04T00:05:52.113Z,91.8
2017-04-04T00:07:01.005Z,91.94
2017-04-04T00:08:09.943Z,91.14
2017-04-04T00:09:18.828Z,90.8
2017-04-04T00:10:27.720Z,91.24
2017-04-04T00:11:36.931Z,91.52
2017-04-04T00:12:45.816Z,91.89
2017-04-04T00:13:54.854Z,92.18
2017-04-04T00:15:03.744Z,92.37
2017-04-04T00:16:12.631Z,92.37
2017-04-04T00:17:21.521Z,92.18
2017-04-04T00:18:30.408Z,92.37
2017-04-04T00:19:39.297Z,92.32
2017-04-04T00:20:48.188Z,91.89
2017-04-04T00:21:57.078Z,92.09
2017-04-04T00:23:06.619Z,92.18
2017-04-04T00:24:16.160Z,92.37
2017-04-04T00:25:25.198Z,92.28
2017-04-04T00:26:34.088Z,92.47
2017-04-04T00:27:42.977Z,92.28
2017-04-04T00:28:51.865Z,93.04
2017-04-04T00:30:00.752Z,92.75
2017-04-04T00:31:09.892Z,93.8
2017-04-04T00:32:18.780Z,93.13
2017-04-04T00:33:27.665Z,93.23
2017-04-04T00:34:36.552Z,92.94
2017-04-04T00:35:45.444Z,93.7
2017-04-04T00:36:54.433Z,94.18
2017-04-04T00:38:03.646Z,94.18
2017-04-04T00:39:12.532Z,94.56
2017-04-04T00:40:21.415Z,94.46
2017-04-04T00:41:30.311Z,94.65
2017-04-04T00:42:39.578Z,94.93
2017-04-04T00:43:48.466Z,94.08
2017-04-04T00:44:57.348Z,94.56
2017-04-04T00:46:06.237Z,94.74
2017-04-04T00:47:15.126Z,95.31
2017-04-04T00:48:24.116Z,94.46
2017-04-04T00:49:33.012Z,94.37
2017-04-04T00:50:41.899Z,94.84
2017-04-04T00:51:51.111Z,94.74
2017-04-04T00:52:59.997Z,94.84
2017-04-04T00:54:09.147Z,95.12
2017-04-04T01:02:23.545Z,95.51
2017-04-04T01:03:32.440Z,94.84
2017-04-04T01:04:41.326Z,95.31
2017-04-04T01:05:50.218Z,95.27
2017-04-04T01:06:59.105Z,95.31
2017-04-04T01:08:08.467Z,95.55
2017-04-04T01:09:17.356Z,95.17
2017-04-04T01:10:26.243Z,96.03
2017-04-04T01:11:35.453Z,95.84
2017-04-04T01:12:44.377Z,95.93
2017-04-04T01:13:53.461Z,95.84
2017-04-04T01:15:02.346Z,96.45
2017-04-04T01:16:11.241Z,97.17
2017-04-04T01:17:20.782Z,97.22
2017-04-04T01:18:29.999Z,96.93
2017-04-04T01:19:39.042Z,97.17
2017-04-04T01:20:47.936Z,97.45
2017-04-04T01:21:56.825Z,97.45
2017-04-04T01:23:06.687Z,98.21
2017-04-04T01:24:15.573Z,98.3
2017-04-04T01:25:24.607Z,97.64
2017-04-04T01:26:33.491Z,98.3
2017-04-04T01:27:42.370Z,99.06
2017-04-04T01:28:51.257Z,98.49
2017-04-04T01:30:00.147Z,99.16
2017-04-04T01:31:09.732Z,99.16
2017-04-04T01:32:18.618Z,99.26
2017-04-04T01:33:27.505Z,99.73
2017-04-04T01:34:36.399Z,99.73
2017-04-04T01:35:45.280Z,99.82
2017-04-04T01:36:54.600Z,98.87
2017-04-04T01:38:03.486Z,98.97
2017-04-04T01:39:13.026Z,99.54
2017-04-04T01:40:21.913Z,99.06
2017-04-04T01:41:30.807Z,99.26
2017-04-04T01:42:39.840Z,99.16
2017-04-04T01:43:48.728Z,99.06
2017-04-04T01:44:57.616Z,98.87
2017-04-04T01:46:06.830Z,99.16
2017-04-04T01:47:15.760Z,99.91
2017-04-04T01:48:25.127Z,98.49
2017-04-04T01:49:34.014Z,98.97
2017-04-04T01:50:42.896Z,99.26
2017-04-04T01:51:52.118Z,99.26
2017-04-04T01:53:01.327Z,98.97
2017-04-04T01:54:10.585Z,99.26
2017-04-04T01:55:19.469Z,99.26
2017-04-04T01:56:28.354Z,98.97
2017-04-04T01:57:37.241Z,99.35
2017-04-04T01:58:46.124Z,99.82
2017-04-04T01:59:55.499Z,99.99
2017-04-04T02:01:04.709Z,98.87
2017-04-04T02:02:13.596Z,99.82
2017-04-04T02:03:22.489Z,99.73
2017-04-04T02:04:31.378Z,99.91
2017-04-04T02:05:40.942Z,99.82
2017-04-04T02:06:49.830Z,99.82
2017-04-04T02:07:59.044Z,99.99
2017-04-04T02:09:07.931Z,99.99
2017-04-04T02:10:16.819Z,99.99
2017-04-04T02:11:25.855Z,99.99
2017-04-04T02:12:34.742Z,99.99
2017-04-04T02:13:43.952Z,99.99
2017-04-04T02:14:52.879Z,99.99
2017-04-04T02:16:01.766Z,99.99
2017-04-04T02:17:11.081Z,99.99
2017-04-04T02:18:20.297Z,99.99
2017-04-04T02:19:29.180Z,99.99
2017-04-04T02:20:38.064Z,99.99
2017-04-04T02:21:46.958Z,99.99
2017-04-04T02:22:56.592Z,99.99
2017-04-04T02:24:05.481Z,99.99
2017-04-04T02:25:14.366Z,99.99
2017-04-04T02:26:23.576Z,99.99
2017-04-04T02:27:32.463Z,99.99
2017-04-04T02:28:41.499Z,99.99
2017-04-04T02:29:50.384Z,99.99
2017-04-04T02:30:59.269Z,99.99
2017-04-04T02:32:08.802Z,99.99
2017-04-04T02:33:18.011Z,99.99
2017-04-04T02:34:27.744Z,99.99
2017-04-04T02:35:36.961Z,99.99
2017-04-04T02:36:45.847Z,99.99
2017-04-04T02:37:54.734Z,99.99
2017-04-04T02:39:03.619Z,99.99
2017-04-04T02:40:13.083Z,99.99
2017-04-04T02:41:22.009Z,99.99
2017-04-04T02:42:31.221Z,99.99
2017-04-04T02:43:40.146Z,99.99
2017-04-04T02:44:49.030Z,99.99
2017-04-04T02:45:58.545Z,99.99
2017-04-04T02:47:07.755Z,99.99
2017-04-04T02:48:16.648Z,99.99
2017-04-04T02:49:25.534Z,99.99
2017-04-04T02:50:34.747Z,99.99
2017-04-04T02:51:43.732Z,99.99
2017-04-04T02:52:52.614Z,99.99
2017-04-04T02:54:01.824Z,99.99
2017-04-04T02:55:11.033Z,99.99
2017-04-04T02:56:19.921Z,99.99
2017-04-04T02:57:29.233Z,99.99
2017-04-04T02:58:38.119Z,99.99
2017-04-04T02:59:47.002Z,99.99
2017-04-04T03:00:55.890Z,99.99
2017-04-04T03:02:05.103Z,99.99
2017-04-04T03:03:13.987Z,99.99
2017-04-04T03:04:22.872Z,99.99
2017-04-04T03:05:31.758Z,99.99
2017-04-04T03:06:40.653Z,99.99
2017-04-04T03:07:49.540Z,99.99
2017-04-04T03:08:58.423Z,99.99
2017-04-04T03:10:07.632Z,99.99
2017-04-04T03:11:16.519Z,99.99
2017-04-04T03:12:25.738Z,99.99
2017-04-04T03:13:34.951Z,99.99
2017-04-04T03:14:43.886Z,99.99
2017-04-04T03:15:53.095Z,99.99
2017-04-04T03:17:01.990Z,99.99
2017-04-04T03:18:10.878Z,99.99
2017-04-04T03:19:19.769Z,99.99
2017-04-04T03:20:28.702Z,99.99
2017-04-04T03:21:37.588Z,99.99
2017-04-04T03:22:46.800Z,99.99
2017-04-04T03:23:55.685Z,99.99
2017-04-04T03:25:04.894Z,99.99
2017-04-04T03:26:13.930Z,99.99
2017-04-04T03:27:22.819Z,99.99
2017-04-04T03:28:32.362Z,99.99
2017-04-04T03:29:41.251Z,99.99
2017-04-04T03:30:50.461Z,99.99
2017-04-04T03:31:59.497Z,99.99
2017-04-04T03:33:08.386Z,99.99
2017-04-04T03:34:17.272Z,99.99
2017-04-04T03:35:26.163Z,99.99
2017-04-04T03:36:35.059Z,99.99
2017-04-04T03:37:44.053Z,99.99
2017-04-04T03:38:52.935Z,99.99
2017-04-04T03:40:02.148Z,99.99
2017-04-04T03:41:11.037Z,99.99
2017-04-04T03:42:19.927Z,99.99
2017-04-04T03:43:28.820Z,99.99
2017-04-04T03:44:37.709Z,99.99
2017-04-04T03:45:46.597Z,99.99
2017-04-04T03:46:55.516Z,99.99
2017-04-04T03:48:04.735Z,99.99
2017-04-04T03:49:13.768Z,99.99
2017-04-04T03:50:22.651Z,99.99
2017-04-04T03:51:31.857Z,99.99
2017-04-04T03:52:40.743Z,99.99
2017-04-04T03:53:49.638Z,99.99
2017-04-04T03:54:58.823Z,99.99
2017-04-04T03:56:07.714Z,99.99
2017-04-04T03:57:16.598Z,99.99
2017-04-04T03:58:25.483Z,99.99
2017-04-04T03:59:34.371Z,99.99
2017-04-04T04:00:43.367Z,99.99
2017-04-04T04:01:52.633Z,99.99
2017-04-04T04:03:01.851Z,99.99
2017-04-04T04:04:10.739Z,99.99
2017-04-04T04:05:19.623Z,99.99
2017-04-04T04:06:29.080Z,99.99
2017-04-04T04:07:37.968Z,99.99
2017-04-04T04:08:47.179Z,99.99
2017-04-04T04:09:56.389Z,99.99
2017-04-04T04:11:05.276Z,99.99
2017-04-04T04:12:14.312Z,99.99
2017-04-04T04:13:23.196Z,99.99
2017-04-04T04:14:32.082Z,99.99
2017-04-04T04:15:40.967Z,99.99
2017-04-04T04:16:49.853Z,99.99
2017-04-04T04:17:59.222Z,99.99
2017-04-04T04:19:08.108Z,99.99
2017-04-04T04:20:17.011Z,99.99
2017-04-04T04:21:26.869Z,99.99
2017-04-04T04:22:36.081Z,99.99
2017-04-04T04:23:45.371Z,99.99
2017-04-04T04:24:54.254Z,99.99
2017-04-04T04:26:03.137Z,99.99
2017-04-04T04:27:12.023Z,99.99
2017-04-04T04:28:20.908Z,99.99
2017-04-04T04:29:30.043Z,99.99
2017-04-04T04:30:39.254Z,99.99
2017-04-04T04:31:48.461Z,99.99
2017-04-04T04:32:57.351Z,99.99
2017-04-04T04:34:06.559Z,99.99
2017-04-04T04:35:15.595Z,99.99
2017-04-04T04:36:24.478Z,99.99
2017-04-04T04:37:33.685Z,99.99
2017-04-04T04:38:42.564Z,99.99
2017-04-04T04:39:51.456Z,99.99
2017-04-04T04:41:00.492Z,99.99
2017-04-04T04:42:09.379Z,99.99
2017-04-04T04:43:18.588Z,99.99
2017-04-04T04:44:27.467Z,99.99
2017-04-04T04:45:36.354Z,99.99
2017-04-04T04:46:45.662Z,99.99
2017-04-04T04:47:54.543Z,99.99
2017-04-04T04:49:03.431Z,99.99
2017-04-04T04:50:12.324Z,99.99
2017-04-04T04:51:21.255Z,99.99
2017-04-04T04:52:30.305Z,99.99
2017-04-04T04:53:39.184Z,99.99
2017-04-04T04:54:48.064Z,99.99
2017-04-04T04:55:56.946Z,99.99
2017-04-04T04:57:06.154Z,99.99
2017-04-04T04:58:15.140Z,99.99
2017-04-04T04:59:24.347Z,99.99
2017-04-04T05:00:33.559Z,99.99
2017-04-04T05:01:43.420Z,99.99
2017-04-04T05:02:52.637Z,99.99
2017-04-04T05:04:01.676Z,99.99
2017-04-04T05:05:11.214Z,99.99
2017-04-04T05:06:20.104Z,99.99
2017-04-04T05:07:29.641Z,99.99
2017-04-04T05:08:38.526Z,99.99
2017-04-04T05:09:47.612Z,99.99
2017-04-04T05:10:56.497Z,99.99
2017-04-04T05:12:05.380Z,99.99
2017-04-04T05:13:14.266Z,99.99
2017-04-04T05:14:23.152Z,99.99
2017-04-04T05:15:32.336Z,99.99
2017-04-04T05:16:41.224Z,99.99
2017-04-04T05:17:50.115Z,99.99
2017-04-04T05:18:59.002Z,99.99
2017-04-04T05:20:07.892Z,99.99
2017-04-04T05:21:17.079Z,99.99
2017-04-04T05:22:25.970Z,99.99
2017-04-04T05:23:34.857Z,99.99
2017-04-04T05:24:43.745Z,99.99
2017-04-04T05:25:52.953Z,99.99
2017-04-04T05:27:01.841Z,99.99
2017-04-04T05:28:11.378Z,99.99
2017-04-04T05:29:20.270Z,99.99
2017-04-04T05:30:29.482Z,99.99
2017-04-04T05:31:38.690Z,99.99
2017-04-04T05:32:47.753Z,99.99
2017-04-04T05:33:56.977Z,99.99
2017-04-04T05:35:06.189Z,99.99
2017-04-04T05:36:15.090Z,99.99
2017-04-04T05:37:24.298Z,99.99
2017-04-04T05:38:33.981Z,99.99
2017-04-04T05:39:43.190Z,99.99
2017-04-04T05:40:52.719Z,99.99
2017-04-04T05:42:01.601Z,99.99
2017-04-04T05:43:10.818Z,99.99
2017-04-04T05:44:19.803Z,99.99
2017-04-04T05:45:28.688Z,99.99
2017-04-04T05:46:37.899Z,99.99
2017-04-04T05:47:46.790Z,99.99
2017-04-04T05:48:55.673Z,99.99
2017-04-04T05:50:05.233Z,99.99
2017-04-04T05:51:14.443Z,99.99
2017-04-04T05:52:23.329Z,99.99
2017-04-04T05:53:32.217Z,99.99
2017-04-04T05:54:41.428Z,99.99
2017-04-04T05:55:50.466Z,99.99
2017-04-04T05:57:00.003Z,99.99
2017-04-04T05:58:09.254Z,99.99
2017-04-04T05:59:18.141Z,99.99
2017-04-04T06:00:27.025Z,99.99
2017-04-04T06:01:35.966Z,99.99
2017-04-04T06:02:45.222Z,99.99
2017-04-04T06:03:54.111Z,99.99
2017-04-04T06:05:03.322Z,99.99
2017-04-04T06:06:12.859Z,99.99
2017-04-04T06:07:22.173Z,99.99
2017-04-04T06:08:31.068Z,99.99
2017-04-04T06:09:40.280Z,99.99
2017-04-04T06:10:49.488Z,99.99
2017-04-04T06:11:59.031Z,99.99
2017-04-04T06:13:08.389Z,99.99
2017-04-04T06:14:17.610Z,99.99
2017-04-04T06:15:27.474Z,99.99
2017-04-04T06:16:36.362Z,99.99
2017-04-04T06:17:45.578Z,99.99
2017-04-04T06:18:54.941Z,99.99
2017-04-04T06:20:04.158Z,99.99
2017-04-04T06:21:13.373Z,99.99
2017-04-04T06:22:22.286Z,99.99
2017-04-04T06:23:31.533Z,99.99
2017-04-04T06:24:40.718Z,99.99
2017-04-04T06:25:49.611Z,99.99
2017-04-04T06:26:58.501Z,99.99
2017-04-04T06:28:07.711Z,99.99
2017-04-04T06:29:16.594Z,99.99
2017-04-04T06:30:25.970Z,99.99
2017-04-04T06:31:35.507Z,99.99
2017-04-04T06:32:44.393Z,99.99
2017-04-04T06:33:53.614Z,99.99
2017-04-04T06:35:02.500Z,99.99
2017-04-04T06:36:11.920Z,99.99
2017-04-04T06:37:20.813Z,99.99
2017-04-04T06:38:29.700Z,99.99
2017-04-04T06:39:38.593Z,99.99
2017-04-04T06:40:47.481Z,99.99
2017-04-04T06:41:56.417Z,99.99
2017-04-04T06:43:05.304Z,99.99
2017-04-04T06:44:14.236Z,99.99
2017-04-04T06:45:23.128Z,99.99
2017-04-04T06:46:32.018Z,99.99
2017-04-04T06:47:41.103Z,99.99
2017-04-04T06:48:49.996Z,99.99
2017-04-04T06:49:59.217Z,99.99
2017-04-04T06:51:08.105Z,99.99
2017-04-04T06:52:16.991Z,99.99
2017-04-04T06:53:26.601Z,99.99
2017-04-04T06:54:35.811Z,99.99
2017-04-04T06:55:44.711Z,99.99
2017-04-04T06:56:53.640Z,99.99
2017-04-04T06:58:02.892Z,99.99
2017-04-04T06:59:11.880Z,99.99
2017-04-04T07:00:20.768Z,99.99
2017-04-04T07:01:29.656Z,99.99
2017-04-04T07:02:38.872Z,99.99
2017-04-04T07:03:48.417Z,99.77
2017-04-04T07:04:58.031Z,99.58
2017-04-04T07:06:06.924Z,99.77
2017-04-04T07:07:15.812Z,99.99
2017-04-04T07:08:24.704Z,99.99
2017-04-04T07:09:33.593Z,99.99
2017-04-04T07:10:42.530Z,99.97
2017-04-04T07:11:51.419Z,99.97
2017-04-04T07:13:00.308Z,99.92
2017-04-04T07:14:09.846Z,99.99
2017-04-04T07:15:18.737Z,99.99
2017-04-04T07:16:28.153Z,98.88
2017-04-04T07:17:37.052Z,99.99
2017-04-04T07:18:45.941Z,99.35
2017-04-04T07:19:54.828Z,99.26
2017-04-04T07:21:03.720Z,99.26
2017-04-04T07:22:13.130Z,99.16
2017-04-04T07:23:22.359Z,98.59
2017-04-04T07:24:31.575Z,99.07
2017-04-04T07:25:40.460Z,99.44
2017-04-04T07:26:49.348Z,98.4
2017-04-04T07:27:58.486Z,97.64
2017-04-04T07:29:07.376Z,97.83
2017-04-04T07:30:16.598Z,97.92
2017-04-04T07:31:25.524Z,97.07
2017-04-04T07:32:34.415Z,96.41
2017-04-04T07:33:43.352Z,96.22
2017-04-04T07:34:52.927Z,96.74
2017-04-04T07:36:01.817Z,96.26
2017-04-04T07:37:11.027Z,96.55
2017-04-04T07:38:19.914Z,97.03
2017-04-04T07:39:28.953Z,97.12
2017-04-04T07:40:38.168Z,95.79
2017-04-04T07:41:47.072Z,95.41
2017-04-04T07:42:55.988Z,95.89
2017-04-04T07:44:05.579Z,95.7
2017-04-04T07:45:14.999Z,94.93
2017-04-04T07:46:24.211Z,94.65
2017-04-04T07:47:33.098Z,94.18
2017-04-04T07:48:41.984Z,94.93
2017-04-04T07:49:50.874Z,94.13
2017-04-04T07:51:00.240Z,93.84
2017-04-04T07:52:09.782Z,94.03
2017-04-04T07:53:18.668Z,94.32
2017-04-04T07:54:28.202Z,93.84
2017-04-04T07:55:37.418Z,94.13
2017-04-04T07:56:46.781Z,93.94
2017-04-04T07:57:55.666Z,94.7
2017-04-04T07:59:04.886Z,94.32
2017-04-04T08:00:13.777Z,94.13
2017-04-04T08:01:22.993Z,93.75
2017-04-04T08:02:32.789Z,93.08
2017-04-04T08:03:41.676Z,93.08
2017-04-04T08:04:50.568Z,92.41
2017-04-04T08:06:00.107Z,91.99
2017-04-04T08:07:09.000Z,92.22
2017-04-04T08:08:18.040Z,91.03
2017-04-04T08:09:26.929Z,91.51
2017-04-04T08:10:36.143Z,90.56
2017-04-04T08:11:45.039Z,91.13
2017-04-04T08:12:53.932Z,91.13
2017-04-04T08:14:03.545Z,91.32
2017-04-04T08:15:12.435Z,88.75
2017-04-04T08:16:21.650Z,87.8
2017-04-04T08:17:30.538Z,88.94
2017-04-04T08:18:39.426Z,90.37
2017-04-04T08:19:48.568Z,90.56
2017-04-04T08:20:57.781Z,90.84
2017-04-04T08:22:06.677Z,90.08
2017-04-04T08:23:15.895Z,88.94
2017-04-04T08:24:24.787Z,88.66
2017-04-04T08:25:33.729Z,88.94
2017-04-04T08:26:42.618Z,88.56
2017-04-04T08:27:51.510Z,87.85
2017-04-04T08:29:00.409Z,85.85
2017-04-04T08:30:09.622Z,84.89
2017-04-04T08:31:18.701Z,84.89
2017-04-04T08:32:28.234Z,84.7
2017-04-04T08:33:37.120Z,85.56
2017-04-04T08:34:46.011Z,85.47
2017-04-04T08:35:55.225Z,85.85
2017-04-04T08:37:04.261Z,84.89
2017-04-04T08:38:13.149Z,84.04
2017-04-04T08:39:22.057Z,84.23
2017-04-04T08:40:31.270Z,84.42
2017-04-04T08:41:40.199Z,84.13
2017-04-04T08:42:49.339Z,84.13
2017-04-04T08:43:58.547Z,84.42
2017-04-04T08:45:07.435Z,83.56
2017-04-04T08:46:16.727Z,83.28
2017-04-04T08:47:25.954Z,82.99
2017-04-04T08:48:35.045Z,81.7
2017-04-04T08:49:43.931Z,81.89
2017-04-04T08:50:53.147Z,82.65
2017-04-04T08:52:02.041Z,83.03
2017-04-04T08:53:10.934Z,82.08
2017-04-04T08:54:20.725Z,82.27
2017-04-04T08:55:29.941Z,82.27
2017-04-04T08:56:38.837Z,82.18
2017-04-04T08:57:48.055Z,81.51
2017-04-04T08:58:57.273Z,81.51
2017-04-04T09:00:06.965Z,83.13
2017-04-04T09:01:16.186Z,82.46
2017-04-04T09:02:25.740Z,83.51
2017-04-04T09:03:34.645Z,82.37
2017-04-04T09:04:43.536Z,81.32
2017-04-04T09:05:52.902Z,79.55
2017-04-04T09:07:02.456Z,80.22
2017-04-04T09:08:11.998Z,79.27
2017-04-04T09:09:21.541Z,80.02
2017-04-04T09:10:30.779Z,78.88
2017-04-04T09:11:39.979Z,78.78
2017-04-04T09:12:50.175Z,79.07
2017-04-04T09:13:59.069Z,78.12
2017-04-04T09:15:07.967Z,77.36
2017-04-04T09:16:17.194Z,75.93
2017-04-04T09:17:26.289Z,75.74
2017-04-04T09:18:35.178Z,76.03
2017-04-04T09:19:44.072Z,75.84
2017-04-04T09:20:52.972Z,75.01
2017-04-04T09:22:01.864Z,75.11
2017-04-04T09:23:11.235Z,73.87
2017-04-04T09:24:20.454Z,72.82
2017-04-04T09:25:29.346Z,73.87
2017-04-04T09:26:38.600Z,73.3
2017-04-04T09:27:47.490Z,73.77
2017-04-04T09:28:56.383Z,73.96
2017-04-04T09:30:05.275Z,74.06
2017-04-04T09:31:14.168Z,74.16
2017-04-04T09:32:23.056Z,74.44
2017-04-04T09:33:31.945Z,74.35
2017-04-04T09:34:40.887Z,75.78
2017-04-04T09:35:50.439Z,75.49
2017-04-04T09:36:59.328Z,74.63
2017-04-04T09:38:08.225Z,74.63
2017-04-04T09:39:17.132Z,73.52
2017-04-04T09:40:26.186Z,72
2017-04-04T09:41:35.078Z,71.81
2017-04-04T09:42:44.295Z,71.33
2017-04-04T09:43:53.188Z,71.23
2017-04-04T09:45:02.083Z,71.04
2017-04-04T09:46:11.353Z,72.19
2017-04-04T09:47:20.245Z,71.23
2017-04-04T09:48:29.182Z,71.39
2017-04-04T09:49:38.081Z,71.72
2017-04-04T09:50:46.972Z,71.33
2017-04-04T09:51:56.240Z,70.38
2017-04-04T09:53:05.461Z,70.38
2017-04-04T09:54:14.683Z,71.23
2017-04-04T09:55:23.576Z,70.67
2017-04-04T09:56:32.473Z,70.67
2017-04-04T09:57:41.513Z,70.38
2017-04-04T09:58:50.403Z,69.43
2017-04-04T09:59:59.294Z,70.19
2017-04-04T10:01:08.513Z,70.57
2017-04-04T10:02:17.401Z,69.27
2017-04-04T10:03:26.446Z,69.08
2017-04-04T10:04:35.669Z,70
2017-04-04T10:05:44.564Z,70.38
2017-04-04T10:06:53.456Z,71.04
2017-04-04T10:08:02.673Z,71.14
2017-04-04T10:09:12.040Z,71.04
2017-04-04T10:10:21.254Z,71.52
2017-04-04T10:11:30.468Z,71.33
2017-04-04T10:12:39.682Z,70.86
2017-04-04T10:13:48.615Z,71.33
2017-04-04T10:14:57.554Z,71.43
2017-04-04T10:16:06.452Z,71.72
2017-04-04T10:17:15.351Z,71.14
2017-04-04T10:18:24.573Z,70.95
2017-04-04T10:19:33.469Z,70.57
2017-04-04T10:20:42.613Z,70.86
2017-04-04T10:21:51.834Z,71.04
2017-04-04T10:23:01.052Z,71.43
2017-04-04T10:24:09.939Z,70.57
2017-04-04T10:25:18.832Z,70
2017-04-04T10:26:28.414Z,70.76
2017-04-04T10:27:37.320Z,71.33
2017-04-04T10:28:46.211Z,71.62
2017-04-04T10:29:55.100Z,70.09
2017-04-04T10:31:03.991Z,68.88
2017-04-04T10:32:13.038Z,68.51
2017-04-04T10:33:21.931Z,67.83
2017-04-04T10:34:30.823Z,69.08
2017-04-04T10:35:39.715Z,68.26
2017-04-04T10:36:48.610Z,67.01
2017-04-04T10:37:57.655Z,66.44
2017-04-04T10:39:06.547Z,65.48
2017-04-04T10:40:15.442Z,65.87
2017-04-04T10:41:24.704Z,66.41
2017-04-04T10:42:34.248Z,66.69
2017-04-04T10:43:43.240Z,66.6
2017-04-04T10:44:52.132Z,66.22
2017-04-04T10:46:01.025Z,66.22
2017-04-04T10:47:09.921Z,66.02
2017-04-04T10:48:18.811Z,66.5
2017-04-04T10:49:27.854Z,65.96
2017-04-04T10:50:36.755Z,66.06
2017-04-04T10:51:45.650Z,65.96
2017-04-04T10:52:55.190Z,65.2
2017-04-04T10:54:04.087Z,66.72
2017-04-04T10:55:13.300Z,66.92
2017-04-04T10:56:22.197Z,68.06
2017-04-04T10:57:31.746Z,66.82
2017-04-04T10:58:40.639Z,66.72
2017-04-04T10:59:49.536Z,66.35
2017-04-04T11:00:59.019Z,67.01
2017-04-04T11:02:07.916Z,65.42
2017-04-04T11:03:16.812Z,65.04
2017-04-04T11:04:25.707Z,65.77
2017-04-04T11:05:34.599Z,66.25
2017-04-04T11:06:43.846Z,66.06
2017-04-04T11:07:53.063Z,65.77
2017-04-04T11:09:01.954Z,64.75
2017-04-04T11:10:10.844Z,65.42
2017-04-04T11:11:19.736Z,64.09
2017-04-04T11:12:28.734Z,63.99
2017-04-04T11:13:37.635Z,63.99
2017-04-04T11:14:46.525Z,63.89
2017-04-04T11:15:55.417Z,64.75
2017-04-04T11:17:04.313Z,64.28
2017-04-04T11:18:13.269Z,63.8
2017-04-04T11:19:22.159Z,63.03
2017-04-04T11:20:31.049Z,62.75
2017-04-04T11:21:40.264Z,63.13
2017-04-04T11:22:49.155Z,63.89
2017-04-04T11:23:58.450Z,63.8
2017-04-04T11:25:07.996Z,62.37
2017-04-04T11:26:16.890Z,62.59
2017-04-04T11:27:26.114Z,62.68
2017-04-04T11:28:35.003Z,62.4
2017-04-04T11:29:44.145Z,62.55
2017-04-04T11:30:53.039Z,61.98
2017-04-04T11:32:02.258Z,61.69
2017-04-04T11:33:11.151Z,62.75
2017-04-04T11:34:20.693Z,61.51
2017-04-04T11:35:29.784Z,61.22
2017-04-04T11:36:38.998Z,61.89
2017-04-04T11:37:47.933Z,62.65
2017-04-04T11:38:57.150Z,62.55
2017-04-04T11:40:06.371Z,63.13
2017-04-04T11:41:16.072Z,62.46
2017-04-04T11:42:24.966Z,61.98
2017-04-04T11:43:33.864Z,60.68
2017-04-04T11:44:43.086Z,61.13
2017-04-04T11:45:52.303Z,62.37
2017-04-04T11:47:01.299Z,61.44
2017-04-04T11:48:10.192Z,61.06
2017-04-04T11:49:19.416Z,61.72
2017-04-04T11:50:28.309Z,61.72
2017-04-04T11:51:37.525Z,60.96
2017-04-04T11:52:46.720Z,60.3
2017-04-04T11:53:55.610Z,59.81
2017-04-04T11:55:04.506Z,59.56
2017-04-04T11:56:13.401Z,59.27
2017-04-04T11:57:22.300Z,60.01
2017-04-04T11:58:31.683Z,60.01
2017-04-04T11:59:40.581Z,60.1
2017-04-04T12:00:49.801Z,60.96
2017-04-04T12:01:59.022Z,59.84
2017-04-04T12:03:08.243Z,59.66
2017-04-04T12:04:17.386Z,58.89
2017-04-04T12:05:26.279Z,58.8
2017-04-04T12:06:35.179Z,60.13
2017-04-04T12:07:44.723Z,60.42
2017-04-04T12:08:53.615Z,58.7
2017-04-04T12:10:02.662Z,58.98
2017-04-04T12:11:11.559Z,59.18
2017-04-04T12:12:20.454Z,58.8
2017-04-04T12:13:29.360Z,58.51
2017-04-04T12:14:38.257Z,58.61
2017-04-04T12:15:47.206Z,58.15
2017-04-04T12:16:56.108Z,57.39
2017-04-04T12:18:05.336Z,57.48
2017-04-04T12:19:14.235Z,57.2
2017-04-04T12:20:23.132Z,56.24
2017-04-04T12:21:32.407Z,56.17
2017-04-04T12:22:41.316Z,56.65
2017-04-04T12:23:50.216Z,58.18
2017-04-04T12:24:59.117Z,57.51
2017-04-04T12:26:08.346Z,56.72
2017-04-04T12:27:17.404Z,57.7
2017-04-04T12:28:26.315Z,57.8
2017-04-04T12:29:35.217Z,57.8
2017-04-04T12:30:44.117Z,55.91
2017-04-04T12:31:53.026Z,54.1
2017-04-04T12:33:02.182Z,54.48
2017-04-04T12:34:11.090Z,54.77
2017-04-04T12:35:20.326Z,54.1
2017-04-04T12:36:29.230Z,55.05
2017-04-04T12:37:38.147Z,55.91
2017-04-04T12:38:47.223Z,56.56
2017-04-04T12:39:56.135Z,55.91
2017-04-04T12:41:05.061Z,54.38
2017-04-04T12:42:13.999Z,54.96
2017-04-04T12:43:23.628Z,56.3
2017-04-04T12:44:32.680Z,55.34
2017-04-04T12:45:41.593Z,55.91
2017-04-04T12:46:50.823Z,55.05
2017-04-04T12:48:00.052Z,54.22
2017-04-04T12:49:09.341Z,53.26
2017-04-04T12:50:18.849Z,54.03
2017-04-04T12:51:28.416Z,54.22
2017-04-04T12:52:38.304Z,52.2
2017-04-04T12:53:47.860Z,52.11
2017-04-04T12:54:57.415Z,52.78
2017-04-04T12:56:07.341Z,53.07
2017-04-04T12:57:16.892Z,53.16
2017-04-04T12:58:27.103Z,52.01
2017-04-04T12:59:37.313Z,51.54
2017-04-04T13:00:47.193Z,51.06
2017-04-04T13:01:56.255Z,51.06
2017-04-04T13:03:05.481Z,50.77
2017-04-04T13:04:14.709Z,52.11
2017-04-04T13:05:23.980Z,51.75
2017-04-04T13:06:33.207Z,52.04
2017-04-04T13:07:42.688Z,53.07
2017-04-04T13:08:51.913Z,51.73
2017-04-04T13:10:00.813Z,51.37
2017-04-04T13:11:10.366Z,52.01
2017-04-04T13:12:19.264Z,53.16
2017-04-04T13:13:28.564Z,52.87
2017-04-04T13:14:37.469Z,52.23
2017-04-04T13:15:46.371Z,51.75
2017-04-04T13:16:55.274Z,50.99
2017-04-04T13:18:04.548Z,49.93
2017-04-04T13:19:13.929Z,49.36
2017-04-04T13:20:23.155Z,49.93
2017-04-04T13:21:32.060Z,50.43
2017-04-04T13:22:41.289Z,49.38
2017-04-04T13:23:50.566Z,49.1
2017-04-04T13:25:00.369Z,48.71
2017-04-04T13:26:09.606Z,49.1
2017-04-04T13:27:18.509Z,49.48
2017-04-04T13:28:27.738Z,50.99
2017-04-04T13:29:36.643Z,51.56
2017-04-04T13:30:45.602Z,50.41
2017-04-04T13:31:55.154Z,49.74
2017-04-04T13:33:04.069Z,50.22
2017-04-04T13:34:12.979Z,50.12
2017-04-04T13:35:21.889Z,50.51
2017-04-04T13:36:30.845Z,50.12
2017-04-04T13:37:40.079Z,50.22
2017-04-04T13:38:48.980Z,49.29
2017-04-04T13:39:58.236Z,48.33
2017-04-04T13:41:07.143Z,47.94
2017-04-04T13:42:16.296Z,47.94
2017-04-04T13:43:25.519Z,49.19
2017-04-04T13:44:34.423Z,48.88
2017-04-04T13:45:43.326Z,47.46
2017-04-04T13:46:52.227Z,47.56
2017-04-04T13:48:01.180Z,47.87
2017-04-04T13:49:10.405Z,48.71
2017-04-04T13:50:19.307Z,47.49
2017-04-04T13:51:28.210Z,47.13
2017-04-04T13:52:37.441Z,45.98
2017-04-04T13:53:46.500Z,45.61
2017-04-04T13:54:55.405Z,45.14
2017-04-04T13:56:04.315Z,44.46
2017-04-04T13:57:13.265Z,43.6
2017-04-04T13:58:22.498Z,43.4
2017-04-04T13:59:31.557Z,43.79
2017-04-04T14:00:40.803Z,44.46
2017-04-04T14:01:49.724Z,44
2017-04-04T14:02:58.634Z,44.46
2017-04-04T14:04:07.545Z,43.7
2017-04-04T14:05:16.833Z,42.64
2017-04-04T14:06:26.068Z,43.02
2017-04-04T14:07:34.975Z,42.93
2017-04-04T14:08:43.887Z,43.79
2017-04-04T14:09:53.121Z,44.08
2017-04-04T14:11:02.087Z,43.62
2017-04-04T14:12:10.999Z,42.37
2017-04-04T14:13:20.241Z,42.3
2017-04-04T14:14:29.148Z,41.6
2017-04-04T14:15:38.056Z,42.66
2017-04-04T14:16:46.965Z,42.37
2017-04-04T14:17:55.877Z,41.43
2017-04-04T14:19:04.790Z,41.55
2017-04-04T14:20:14.031Z,41.06
2017-04-04T14:21:23.267Z,40.78
2017-04-04T14:22:32.426Z,41.55
2017-04-04T14:23:41.339Z,42.97
2017-04-04T14:24:50.250Z,41.82
2017-04-04T14:25:59.487Z,41.91
2017-04-04T14:27:08.730Z,41.82
2017-04-04T14:28:17.893Z,41.91
2017-04-04T14:29:26.806Z,41.53
2017-04-04T14:30:36.047Z,41.45
2017-04-04T14:31:44.960Z,41.43
2017-04-04T14:32:54.485Z,41.02
2017-04-04T14:34:03.726Z,40.95
2017-04-04T14:35:12.650Z,41.72
2017-04-04T14:36:21.617Z,41.62
2017-04-04T14:37:30.861Z,41.53
2017-04-04T14:38:40.149Z,41.16
2017-04-04T14:39:49.439Z,41.64
2017-04-04T14:40:58.385Z,40.97
2017-04-04T14:42:07.949Z,41.45
2017-04-04T14:43:16.922Z,41.64
2017-04-04T14:44:26.173Z,41.45
2017-04-04T14:45:35.417Z,42.22
2017-04-04T14:46:44.338Z,41.55
2017-04-04T14:47:53.252Z,41.16
2017-04-04T14:49:02.165Z,41.35
2017-04-04T14:50:11.409Z,41.43
2017-04-04T14:51:20.976Z,41.14
2017-04-04T14:52:29.895Z,40.2
2017-04-04T14:53:38.911Z,40.01
2017-04-04T14:54:48.034Z,40.01
2017-04-04T14:55:56.979Z,39.33
2017-04-04T14:57:05.921Z,39.72
2017-04-04T14:58:14.878Z,39.91